Etusivu
METAR-TAF:

METAR-TAF

Lentoasemat :

Ancona, Italia

Leveyspiiri: 43-37N, Pituuspiiri: 013-22E, korkeus merenpinnasta: 12 m

Tämänhetkinen sää

Tämä raportti tehtiin 35 minuuttia sitten, kello 12.50 UTC
Tuuli 6 kn pohjoisesta, vaihdellen luoteen ja koillisen välillä
Lämpötila 12°C
Kosteus 47%
Ilmanpaine 1025 hPa
Näkyvyys 10 km tai enemmän
ei pilviä alle 1500 m:ssä eikä cumulonimbus-pilviä

METAR: LIPY 201250Z 36006KT 310V040 CAVOK 12/01 Q1025

Aika: 14:25 (13:25 UTC)

Sääennuste

Tämä raportti tehtiin 2 tuntia ja 25 minuuttia sitten, kello 11.00 UTC
Ennuste voimassa 20. päivästä klo 12 UTC - 21. päivään klo 12 UTC
Tuuli 10 kn koillisesta
Näkyvyys 10 km tai enemmän
ei pilviä alle 1500 m:ssä eikä cumulonimbus-pilviä
Tulossa
20. päivästä klo 16 UTC - 20. päivään klo 18 UTC
Tuuli 5 kn eri suunnista

TAF: LIPY 201100Z 2012/2112 04010KT CAVOK BECMG 2016/2018 VRB05KT

Säähavainnot ja -ennusteet yli 4000 lentoasemalta (METAR- ja TAF-raportit).

Käytössä olevat sääasemat on merkitty karttaan keltaisilla ja punaisilla pisteillä.

Aseta hiiri pisteen päälle nähdäksesi sääaseman nimen.

Klikkaa sitten nähdäksesi säähavainnot ja -ennusteet.

Kartan vaihtaminen: klikkaa mustalla rastilla varustettuja vihreitä pisteitä, niin voit zoomata sisään; viivalla varustettua vihreää pistettä, niin voit zoomata ulos tai vihreitä nuolia, niin pääset viereisille kartoille.


METAR-TAF: